createdAt,value
2019-01-11T00:01:39.074Z,96.00
2019-01-11T00:04:08.531Z,96.50
2019-01-11T00:06:38.098Z,96.10
2019-01-11T00:09:08.652Z,96.30
2019-01-11T00:11:38.338Z,96.50
2019-01-11T00:14:07.877Z,96.40
2019-01-11T00:16:37.273Z,96.70
2019-01-11T00:19:07.255Z,96.50
2019-01-11T00:21:37.231Z,96.50
2019-01-11T00:24:58.507Z,96.90
2019-01-11T00:27:27.742Z,96.90
2019-01-11T00:29:57.186Z,97.00
2019-01-11T00:32:27.641Z,96.90
2019-01-11T00:34:56.997Z,97.10
2019-01-11T00:37:26.205Z,97.30
2019-01-11T00:39:55.647Z,97.30
2019-01-11T00:42:25.109Z,97.40
2019-01-11T00:44:54.287Z,97.50
2019-01-11T00:47:23.749Z,97.60
2019-01-11T00:49:53.218Z,97.30
2019-01-11T00:52:23.540Z,97.10
2019-01-11T00:54:52.748Z,97.40
2019-01-11T00:57:22.142Z,97.60
2019-01-11T00:59:51.458Z,97.40
2019-01-11T01:02:20.787Z,97.30
2019-01-11T01:04:50.263Z,97.20
2019-01-11T01:07:19.897Z,97.60
2019-01-11T01:09:49.447Z,98.10
2019-01-11T01:12:18.822Z,97.60
2019-01-11T01:14:48.270Z,97.50
2019-01-11T01:17:17.632Z,97.10
2019-01-11T01:19:46.898Z,97.20
2019-01-11T01:22:17.484Z,97.30
2019-01-11T01:24:46.750Z,97.90
2019-01-11T01:27:16.202Z,98.10
2019-01-11T01:29:45.464Z,98.20
2019-01-11T01:32:14.903Z,98.40
2019-01-11T01:34:44.303Z,98.80
2019-01-11T01:37:15.509Z,98.90
2019-01-11T01:39:44.999Z,99.20
2019-01-11T01:42:14.550Z,98.90
2019-01-11T01:44:44.787Z,98.90
2019-01-11T01:47:14.005Z,99.10
2019-01-11T01:49:43.381Z,99.20
2019-01-11T01:52:12.577Z,99.40
2019-01-11T01:54:42.085Z,99.70
2019-01-11T01:57:12.322Z,99.50
2019-01-11T01:59:41.562Z,99.90
2019-01-11T02:02:11.029Z,99.90
2019-01-11T02:04:40.426Z,99.90
2019-01-11T02:07:09.935Z,99.90
2019-01-11T02:09:39.513Z,99.90
2019-01-11T02:12:08.947Z,99.90
2019-01-11T02:14:38.509Z,99.90
2019-01-11T02:17:07.994Z,99.90
2019-01-11T02:19:37.447Z,99.90
2019-01-11T02:22:06.830Z,99.90
2019-01-11T02:24:36.085Z,99.90
2019-01-11T02:27:05.699Z,99.90
2019-01-11T02:29:37.110Z,99.90
2019-01-11T02:32:06.462Z,99.90
2019-01-11T02:34:35.763Z,99.90
2019-01-11T02:37:05.355Z,99.90
2019-01-11T02:39:34.769Z,99.90
2019-01-11T02:42:04.373Z,99.90
2019-01-11T02:44:33.740Z,99.90
2019-01-11T02:47:02.930Z,99.90
2019-01-11T02:49:32.330Z,99.90
2019-01-11T02:52:01.587Z,99.90
2019-01-11T02:54:30.963Z,99.90
2019-01-11T02:57:00.437Z,99.90
2019-01-11T02:59:29.607Z,99.90
2019-01-11T03:01:59.076Z,99.90
2019-01-11T03:04:28.632Z,99.90
2019-01-11T03:06:58.128Z,99.90
2019-01-11T03:09:27.633Z,99.90
2019-01-11T03:11:57.137Z,99.90
2019-01-11T03:14:26.563Z,99.90
2019-01-11T03:17:01.029Z,99.90
2019-01-11T03:19:30.223Z,99.90
2019-01-11T03:22:00.464Z,99.90
2019-01-11T03:24:29.975Z,99.90
2019-01-11T03:26:59.452Z,99.90
2019-01-11T03:29:34.747Z,99.90
2019-01-11T03:32:15.290Z,99.90
2019-01-11T03:34:46.388Z,99.90
2019-01-11T03:37:15.563Z,99.90
2019-01-11T03:39:45.003Z,99.90
2019-01-11T03:42:15.312Z,99.90
2019-01-11T03:44:44.795Z,99.90
2019-01-11T03:47:14.012Z,99.90
2019-01-11T03:49:45.448Z,99.90
2019-01-11T03:52:18.673Z,99.90
2019-01-11T03:54:53.874Z,99.90
2019-01-11T03:57:28.007Z,99.90
2019-01-11T03:59:58.231Z,99.90
2019-01-11T04:02:27.399Z,99.90
2019-01-11T04:04:56.873Z,99.90
2019-01-11T04:07:27.157Z,99.90
2019-01-11T04:09:56.393Z,99.90
2019-01-11T04:12:25.766Z,99.90
2019-01-11T04:14:58.130Z,99.90
2019-01-11T04:17:29.686Z,99.90
2019-01-11T04:20:02.251Z,99.90
2019-01-11T04:22:29.985Z,99.90
2019-01-11T04:25:06.742Z,99.90
2019-01-11T04:27:36.246Z,99.90
2019-01-11T04:30:09.772Z,99.90
2019-01-11T04:32:39.034Z,99.90
2019-01-11T04:35:08.637Z,99.90
2019-01-11T04:37:41.150Z,99.90
2019-01-11T04:40:13.256Z,99.90
2019-01-11T04:42:42.447Z,99.90
2019-01-11T04:45:12.083Z,99.90
2019-01-11T04:47:42.612Z,99.90
2019-01-11T04:50:16.544Z,99.90
2019-01-11T04:52:46.271Z,99.90
2019-01-11T04:55:16.302Z,99.90
2019-01-11T04:57:46.827Z,99.90
2019-01-11T05:00:20.786Z,99.90
2019-01-11T05:02:50.366Z,99.90
2019-01-11T05:05:19.927Z,99.90
2019-01-11T05:07:49.352Z,99.90
2019-01-11T05:10:19.662Z,99.90
2019-01-11T05:12:49.116Z,99.90
2019-01-11T05:15:18.746Z,99.90
2019-01-11T05:17:48.978Z,99.90
2019-01-11T05:20:18.225Z,99.90
2019-01-11T05:22:47.693Z,99.90
2019-01-11T05:25:17.164Z,99.90
2019-01-11T05:27:46.799Z,99.90
2019-01-11T05:30:17.111Z,99.90
2019-01-11T05:32:46.486Z,99.90
2019-01-11T05:35:15.951Z,99.90
2019-01-11T05:37:45.391Z,99.90
2019-01-11T05:40:16.961Z,99.90
2019-01-11T05:42:46.544Z,99.90
2019-01-11T05:45:17.063Z,99.90
2019-01-11T05:47:46.354Z,99.90
2019-01-11T05:50:23.976Z,99.90
2019-01-11T05:52:51.475Z,99.90
2019-01-11T05:55:38.793Z,99.90
2019-01-11T05:58:24.571Z,99.90
2019-01-11T06:00:54.002Z,99.90
2019-01-11T06:03:23.455Z,99.90
2019-01-11T06:05:53.323Z,99.90
2019-01-11T06:08:22.659Z,99.90
2019-01-11T06:10:51.972Z,99.90
2019-01-11T06:13:21.536Z,99.90
2019-01-11T06:15:51.803Z,99.90
2019-01-11T06:18:22.366Z,99.90
2019-01-11T06:20:51.865Z,99.90
2019-01-11T06:23:22.362Z,99.90
2019-01-11T06:25:51.981Z,99.90
2019-01-11T06:28:21.503Z,99.90
2019-01-11T06:30:51.612Z,99.90
2019-01-11T06:33:20.859Z,99.90
2019-01-11T06:35:50.415Z,99.90
2019-01-11T06:38:19.943Z,99.90
2019-01-11T06:40:49.397Z,99.90
2019-01-11T06:43:18.916Z,99.90
2019-01-11T06:45:48.305Z,99.90
2019-01-11T06:48:19.122Z,99.90
2019-01-11T06:50:48.581Z,99.90
2019-01-11T06:53:18.045Z,99.90
2019-01-11T06:55:47.217Z,99.90
2019-01-11T06:58:16.677Z,99.90
2019-01-11T07:00:46.191Z,99.90
2019-01-11T07:03:15.736Z,99.90
2019-01-11T07:05:45.246Z,99.90
2019-01-11T07:08:14.678Z,99.90
2019-01-11T07:10:45.020Z,99.90
2019-01-11T07:13:14.564Z,99.90
2019-01-11T07:15:46.150Z,99.90
2019-01-11T07:18:15.645Z,99.90
2019-01-11T07:20:48.570Z,99.90
2019-01-11T07:23:18.001Z,99.90
2019-01-11T07:25:47.820Z,99.90
2019-01-11T07:28:17.731Z,99.90
2019-01-11T07:30:51.687Z,99.90
2019-01-11T07:33:22.519Z,99.90
2019-01-11T07:35:54.410Z,99.90
2019-01-11T07:38:23.909Z,99.90
2019-01-11T07:40:53.497Z,99.90
2019-01-11T07:43:22.930Z,99.90
2019-01-11T07:45:52.426Z,99.90
2019-01-11T07:48:21.956Z,99.90
2019-01-11T07:50:51.425Z,99.90
2019-01-11T07:53:20.599Z,99.90
2019-01-11T07:55:50.142Z,99.90
2019-01-11T07:58:19.605Z,99.90
2019-01-11T08:00:49.034Z,99.90
2019-01-11T08:03:18.256Z,99.90
2019-01-11T08:05:47.646Z,99.90
2019-01-11T08:08:20.031Z,99.90
2019-01-11T08:10:49.547Z,99.90
2019-01-11T08:13:19.017Z,99.90
2019-01-11T08:15:48.195Z,99.90
2019-01-11T08:18:17.704Z,99.90
2019-01-11T08:20:47.139Z,99.90
2019-01-11T08:23:16.502Z,99.90
2019-01-11T08:25:45.790Z,99.90
2019-01-11T08:28:16.815Z,99.90
2019-01-11T08:30:46.078Z,99.90
2019-01-11T08:33:18.579Z,99.90
2019-01-11T08:35:47.437Z,99.90
2019-01-11T08:38:17.758Z,99.90
2019-01-11T08:40:46.968Z,99.90
2019-01-11T08:43:16.455Z,99.90
2019-01-11T08:45:46.800Z,99.90
2019-01-11T08:48:21.180Z,99.90
2019-01-11T08:50:51.451Z,99.90
2019-01-11T08:53:23.881Z,99.90
2019-01-11T08:55:53.370Z,99.90
2019-01-11T08:58:22.825Z,99.90
2019-01-11T09:00:53.137Z,99.90
2019-01-11T09:03:22.440Z,99.90
2019-01-11T09:05:52.032Z,99.90
2019-01-11T09:08:22.633Z,99.90
2019-01-11T09:10:53.007Z,99.90
2019-01-11T09:13:22.362Z,99.90
2019-01-11T09:15:51.805Z,99.90
2019-01-11T09:18:21.317Z,99.90
2019-01-11T09:20:50.478Z,99.90
2019-01-11T09:23:20.013Z,99.90
2019-01-11T09:25:53.563Z,99.90
2019-01-11T09:28:23.037Z,99.60
2019-01-11T09:30:54.243Z,99.40
2019-01-11T09:33:23.713Z,99.50
2019-01-11T09:35:53.196Z,99.90
2019-01-11T09:38:23.484Z,99.60
2019-01-11T09:40:53.045Z,99.40
2019-01-11T09:43:22.551Z,99.60
2019-01-11T09:45:52.032Z,99.70
2019-01-11T09:48:21.683Z,99.90
2019-01-11T09:50:51.035Z,99.60
2019-01-11T09:53:20.194Z,99.40
2019-01-11T09:55:49.673Z,99.80
2019-01-11T09:58:19.201Z,99.70
2019-01-11T10:00:48.749Z,99.70
2019-01-11T10:03:18.196Z,99.60
2019-01-11T10:05:47.656Z,99.60
2019-01-11T10:08:16.896Z,99.50
2019-01-11T10:10:46.315Z,99.50
2019-01-11T10:13:15.829Z,99.30
2019-01-11T10:15:48.294Z,99.70
2019-01-11T10:18:17.678Z,99.40
2019-01-11T10:20:48.783Z,99.40
2019-01-11T10:23:17.950Z,99.00
2019-01-11T10:25:47.426Z,99.00
2019-01-11T10:28:17.733Z,99.40
2019-01-11T10:30:47.222Z,99.90
2019-01-11T10:33:16.466Z,99.60
2019-01-11T10:35:46.899Z,99.60
2019-01-11T10:38:16.143Z,99.50
2019-01-11T10:40:45.355Z,99.20
2019-01-11T10:43:14.749Z,99.20
2019-01-11T10:45:43.929Z,99.30
2019-01-11T10:48:13.425Z,99.30
2019-01-11T10:50:43.003Z,99.40
2019-01-11T10:53:12.493Z,99.40
2019-01-11T10:55:42.042Z,99.40
2019-01-11T10:58:12.382Z,99.40
2019-01-11T11:00:41.784Z,99.50
2019-01-11T11:03:11.090Z,99.50
2019-01-11T11:05:40.329Z,99.40
2019-01-11T11:08:09.573Z,99.50
2019-01-11T11:10:38.937Z,99.10
2019-01-11T11:13:08.397Z,98.70
2019-01-11T11:15:40.374Z,98.80
2019-01-11T11:18:09.915Z,98.20
2019-01-11T11:20:39.375Z,98.20
2019-01-11T11:23:08.534Z,98.30
2019-01-11T11:25:37.854Z,97.90
2019-01-11T11:28:07.063Z,97.90
2019-01-11T11:30:37.687Z,98.00
2019-01-11T11:33:06.996Z,97.90
2019-01-11T11:35:36.488Z,97.90
2019-01-11T11:38:05.911Z,97.80
2019-01-11T11:40:36.366Z,96.90
2019-01-11T11:43:05.747Z,96.60
2019-01-11T11:45:35.049Z,96.20
2019-01-11T11:48:04.819Z,96.10
2019-01-11T11:50:34.285Z,96.30
2019-01-11T11:53:03.931Z,96.40
2019-01-11T11:55:33.446Z,96.20
2019-01-11T11:58:04.890Z,96.10
2019-01-11T12:00:34.597Z,95.40
2019-01-11T12:03:04.790Z,94.80
2019-01-11T12:05:37.237Z,94.60
2019-01-11T12:08:06.679Z,94.40
2019-01-11T12:10:36.145Z,94.50
2019-01-11T12:13:05.556Z,94.90
2019-01-11T12:15:35.126Z,94.60
2019-01-11T12:18:04.414Z,94.20
2019-01-11T12:20:33.720Z,94.00
2019-01-11T12:23:03.297Z,93.90
2019-01-11T12:25:32.521Z,94.30
2019-01-11T12:28:01.779Z,94.20
2019-01-11T12:30:35.021Z,94.40
2019-01-11T12:33:19.427Z,94.90
2019-01-11T12:35:49.524Z,95.60
2019-01-11T12:38:18.702Z,95.50
2019-01-11T12:40:48.979Z,95.70
2019-01-11T12:43:18.451Z,95.90
2019-01-11T12:45:47.616Z,95.50
2019-01-11T12:48:17.098Z,95.70
2019-01-11T12:50:48.211Z,95.60
2019-01-11T12:53:19.367Z,95.70
2019-01-11T12:55:49.699Z,95.60
2019-01-11T12:58:20.046Z,95.20
2019-01-11T13:00:49.559Z,95.40
2019-01-11T13:03:19.041Z,95.50
2019-01-11T13:05:48.567Z,95.40
2019-01-11T13:08:18.020Z,95.50
2019-01-11T13:10:47.695Z,95.90
2019-01-11T13:13:17.027Z,96.20
2019-01-11T13:15:46.563Z,96.60
2019-01-11T13:18:15.803Z,96.80
2019-01-11T13:20:45.123Z,96.90
2019-01-11T13:23:14.303Z,97.00
2019-01-11T13:25:43.832Z,97.10
2019-01-11T13:28:13.236Z,97.30
2019-01-11T13:30:43.552Z,97.10
2019-01-11T13:33:12.769Z,97.10
2019-01-11T13:35:42.239Z,97.00
2019-01-11T13:38:11.667Z,97.00
2019-01-11T13:40:40.889Z,97.10
2019-01-11T13:43:10.129Z,97.30
2019-01-11T13:45:40.725Z,97.50
2019-01-11T13:48:10.091Z,97.50
2019-01-11T13:50:39.907Z,97.70
2019-01-11T13:53:09.448Z,97.90
2019-01-11T13:55:40.755Z,97.90
2019-01-11T13:58:10.170Z,98.10
2019-01-11T14:00:39.489Z,98.10
2019-01-11T14:03:09.693Z,98.30
2019-01-11T14:05:39.231Z,98.60
2019-01-11T14:08:08.659Z,98.70
2019-01-11T14:10:38.212Z,99.20
2019-01-11T14:13:08.905Z,99.20
2019-01-11T14:15:38.360Z,99.30
2019-01-11T14:18:07.884Z,99.40
2019-01-11T14:20:37.370Z,99.40
2019-01-11T14:23:06.928Z,99.70
2019-01-11T14:25:36.471Z,99.90
2019-01-11T14:28:05.797Z,99.90
2019-01-11T14:30:35.648Z,99.90
2019-01-11T14:33:06.275Z,99.90
2019-01-11T14:35:35.623Z,99.90
2019-01-11T14:38:05.128Z,99.90
2019-01-11T14:40:34.731Z,99.90
2019-01-11T14:43:04.281Z,99.90
2019-01-11T14:45:33.645Z,99.90
2019-01-11T14:48:02.953Z,99.90
2019-01-11T14:50:33.131Z,99.90
2019-01-11T14:53:02.314Z,99.90
2019-01-11T14:55:31.733Z,99.90
2019-01-11T14:58:00.901Z,99.90
2019-01-11T15:00:39.899Z,99.90
2019-01-11T15:03:09.206Z,99.90
2019-01-11T15:05:38.696Z,99.90
2019-01-11T15:08:18.063Z,99.90
2019-01-11T15:10:47.277Z,99.90
2019-01-11T15:13:16.496Z,99.90
2019-01-11T15:15:45.775Z,99.90
2019-01-11T15:18:15.025Z,99.90
2019-01-11T15:20:45.166Z,99.90
2019-01-11T15:23:14.383Z,99.90
2019-01-11T15:25:43.749Z,99.90
2019-01-11T15:28:14.099Z,99.90
2019-01-11T15:30:43.617Z,99.90
2019-01-11T15:33:13.069Z,99.90
2019-01-11T15:35:42.309Z,99.90
2019-01-11T15:38:11.994Z,99.90
2019-01-11T15:40:41.247Z,99.90
2019-01-11T15:43:10.701Z,99.90
2019-01-11T15:45:44.413Z,99.90
2019-01-11T15:48:15.821Z,99.90
2019-01-11T15:50:51.099Z,99.90
2019-01-11T15:53:21.421Z,99.90
2019-01-11T15:55:51.030Z,99.90
2019-01-11T15:58:21.315Z,99.90
2019-01-11T16:00:52.796Z,99.90
2019-01-11T16:03:23.130Z,99.90
2019-01-11T16:06:13.994Z,99.90
2019-01-11T16:09:04.310Z,99.90
2019-01-11T16:11:42.161Z,99.90
2019-01-11T16:14:21.318Z,99.90
2019-01-11T16:16:51.270Z,99.90
2019-01-11T16:19:20.450Z,99.90
2019-01-11T16:21:49.890Z,99.90
2019-01-11T16:24:20.239Z,99.90
2019-01-11T16:26:54.606Z,99.90
2019-01-11T16:29:23.784Z,99.90
2019-01-11T16:31:53.257Z,99.70
2019-01-11T16:34:22.744Z,99.60
2019-01-11T16:36:52.272Z,99.60
2019-01-11T16:39:21.859Z,99.50
2019-01-11T16:41:51.312Z,99.40
2019-01-11T16:44:20.562Z,99.30
2019-01-11T16:46:49.944Z,99.40
2019-01-11T16:49:20.146Z,99.40
2019-01-11T16:51:49.334Z,99.50
2019-01-11T16:54:18.785Z,99.60
2019-01-11T16:56:48.039Z,99.60
2019-01-11T16:59:17.368Z,99.70
2019-01-11T17:01:46.587Z,99.90
2019-01-11T17:04:15.958Z,99.90
2019-01-11T17:06:45.116Z,99.90
2019-01-11T17:09:15.118Z,99.90
2019-01-11T17:11:46.705Z,99.90
2019-01-11T17:14:16.029Z,99.90
2019-01-11T17:16:45.305Z,99.90
2019-01-11T17:19:14.478Z,99.90
2019-01-11T17:21:43.656Z,99.90
2019-01-11T17:24:12.872Z,99.90
2019-01-11T17:26:42.390Z,99.90
2019-01-11T17:29:12.665Z,99.90
2019-01-11T17:31:42.213Z,99.90
2019-01-11T17:34:11.752Z,99.90
2019-01-11T17:36:41.197Z,99.90
2019-01-11T17:39:10.726Z,99.90
2019-01-11T17:41:40.267Z,99.90
2019-01-11T17:44:10.543Z,99.90
2019-01-11T17:46:40.075Z,99.90
2019-01-11T17:49:10.340Z,99.90
2019-01-11T17:51:39.577Z,99.90
2019-01-11T17:54:09.038Z,99.90
2019-01-11T17:56:38.449Z,99.90
2019-01-11T17:59:10.824Z,99.90
2019-01-11T18:01:40.470Z,99.90
2019-01-11T18:04:09.711Z,99.90
2019-01-11T18:06:38.925Z,99.90
2019-01-11T18:09:08.281Z,99.90
2019-01-11T18:11:37.621Z,99.90
2019-01-11T18:14:07.933Z,99.90
2019-01-11T18:16:37.382Z,99.90
2019-01-11T18:19:07.684Z,99.90
2019-01-11T18:21:36.860Z,99.90
2019-01-11T18:24:06.320Z,99.90
2019-01-11T18:26:35.933Z,99.90
2019-01-11T18:29:05.427Z,99.90
2019-01-11T18:31:34.647Z,99.90
2019-01-11T18:34:05.120Z,99.90
2019-01-11T18:36:35.520Z,99.90
2019-01-11T18:39:07.389Z,99.90
2019-01-11T18:41:36.910Z,99.90
2019-01-11T18:44:07.249Z,99.90
2019-01-11T18:46:36.832Z,99.90
2019-01-11T18:49:06.342Z,99.90
2019-01-11T18:51:35.841Z,99.90
2019-01-11T18:54:05.455Z,99.90
2019-01-11T18:56:34.824Z,99.90
2019-01-11T18:59:04.355Z,99.90
2019-01-11T19:01:33.817Z,99.90
2019-01-11T19:04:05.446Z,99.90
2019-01-11T19:06:35.741Z,99.90
2019-01-11T19:09:08.055Z,99.90
2019-01-11T19:11:37.624Z,99.90
2019-01-11T19:14:07.109Z,99.90
2019-01-11T19:16:36.597Z,99.90
2019-01-11T19:19:06.183Z,99.90
2019-01-11T19:21:35.553Z,99.90
2019-01-11T19:24:05.406Z,99.90
2019-01-11T19:26:34.662Z,99.90
2019-01-11T19:29:04.438Z,99.90
2019-01-11T19:31:35.663Z,99.90
2019-01-11T19:34:05.225Z,99.90
2019-01-11T19:36:35.583Z,99.90
2019-01-11T19:39:06.635Z,99.90
2019-01-11T19:41:36.173Z,99.90
2019-01-11T19:44:05.619Z,99.90
2019-01-11T19:46:34.841Z,99.90
2019-01-11T19:49:04.659Z,99.90
2019-01-11T19:51:34.131Z,99.90
2019-01-11T19:54:03.352Z,99.90
2019-01-11T19:56:32.748Z,99.90
2019-01-11T19:59:02.313Z,99.90
2019-01-11T20:01:33.910Z,99.90
2019-01-11T20:04:03.792Z,99.90
2019-01-11T20:06:33.264Z,99.90
2019-01-11T20:09:03.515Z,99.90
2019-01-11T20:11:32.886Z,99.90
2019-01-11T20:14:02.277Z,99.90
2019-01-11T20:16:34.603Z,99.90
2019-01-11T20:19:04.271Z,99.90
2019-01-11T20:21:33.591Z,99.90
2019-01-11T20:24:03.137Z,99.90
2019-01-11T20:26:32.619Z,99.90
2019-01-11T20:29:02.048Z,99.90
2019-01-11T20:31:31.678Z,99.90
2019-01-11T20:34:00.985Z,99.90
2019-01-11T20:36:33.031Z,99.90
2019-01-11T20:39:02.690Z,99.90
2019-01-11T20:41:34.071Z,99.90
2019-01-11T20:44:06.143Z,99.90
2019-01-11T20:46:35.582Z,99.90
2019-01-11T20:49:05.049Z,99.90
2019-01-11T20:51:34.555Z,99.90
2019-01-11T20:54:05.058Z,99.90
2019-01-11T20:56:36.775Z,99.90
2019-01-11T20:59:12.997Z,99.90
2019-01-11T21:01:42.390Z,99.90
2019-01-11T21:04:11.663Z,99.90
2019-01-11T21:06:41.111Z,99.90
2019-01-11T21:09:10.604Z,99.90
2019-01-11T21:11:42.118Z,99.90
2019-01-11T21:14:12.427Z,99.90
2019-01-11T21:16:46.858Z,99.90
2019-01-11T21:19:17.113Z,99.90
2019-01-11T21:21:46.414Z,99.90
2019-01-11T21:24:15.816Z,99.90
2019-01-11T21:26:45.293Z,99.90
2019-01-11T21:29:16.855Z,99.90
2019-01-11T21:31:46.307Z,99.90
2019-01-11T21:34:15.554Z,99.90
2019-01-11T21:36:45.757Z,99.90
2019-01-11T21:39:15.308Z,99.90
2019-01-11T21:41:45.569Z,99.90
2019-01-11T21:44:15.061Z,99.90
2019-01-11T21:46:44.564Z,99.90
2019-01-11T21:49:17.344Z,99.90
2019-01-11T21:51:47.691Z,99.90
2019-01-11T21:54:18.812Z,99.90
2019-01-11T21:56:51.169Z,99.90
2019-01-11T21:59:20.380Z,99.90
2019-01-11T22:01:49.933Z,99.90
2019-01-11T22:04:19.287Z,99.90
2019-01-11T22:06:48.542Z,99.90
2019-01-11T22:09:19.939Z,99.90
2019-01-11T22:11:49.535Z,99.90
2019-01-11T22:14:19.051Z,99.90
2019-01-11T22:16:48.470Z,99.90
2019-01-11T22:19:18.004Z,99.90
2019-01-11T22:21:48.417Z,99.90
2019-01-11T22:24:17.793Z,99.90
2019-01-11T22:26:47.286Z,99.90
2019-01-11T22:29:16.495Z,99.90
2019-01-11T22:31:45.925Z,99.90
2019-01-11T22:34:15.389Z,99.90
2019-01-11T22:36:44.591Z,99.90
2019-01-11T22:39:19.333Z,99.90
2019-01-11T22:41:48.823Z,99.90
2019-01-11T22:44:19.234Z,99.90
2019-01-11T22:46:49.488Z,99.90
2019-01-11T22:49:19.016Z,99.90
2019-01-11T22:51:48.515Z,99.90
2019-01-11T22:54:17.984Z,99.90
2019-01-11T22:56:47.153Z,99.90
2019-01-11T22:59:16.629Z,99.90
2019-01-11T23:01:51.718Z,99.90
2019-01-11T23:04:21.463Z,99.90
2019-01-11T23:06:59.842Z,99.90
2019-01-11T23:09:30.165Z,99.90
2019-01-11T23:12:14.125Z,99.90
2019-01-11T23:14:43.615Z,99.90
2019-01-11T23:17:18.978Z,99.90
2019-01-11T23:19:50.339Z,99.90
2019-01-11T23:22:19.838Z,99.90
2019-01-11T23:24:49.336Z,99.90
2019-01-11T23:27:20.488Z,99.90
2019-01-11T23:29:49.985Z,99.90
2019-01-11T23:32:19.158Z,99.90
2019-01-11T23:34:49.447Z,99.90
2019-01-11T23:37:18.942Z,99.90
2019-01-11T23:39:48.421Z,99.90
2019-01-11T23:42:17.616Z,99.90
2019-01-11T23:44:49.055Z,99.90
2019-01-11T23:47:18.219Z,99.90
2019-01-11T23:49:47.686Z,99.90
2019-01-11T23:52:17.163Z,99.90
2019-01-11T23:54:46.395Z,99.90
2019-01-11T23:57:15.803Z,99.90
2019-01-11T23:59:45.264Z,99.90
